METAR Data
IDs: Format: Raw Decoded Include TAF

Data at: 0145 UTC 26 Apr 2019

PAWI 260053Z AUTO 16004KT 10SM OVC006 M07/M09 A3035 RMK SLP277 T10721089 TSNO VIA AUTODIAL
PAWI 252353Z AUTO 19004KT 10SM OVC006 M07/M09 A3034 RMK SNB2254E17 SLP276 P0000 60000 T10721089 11072 21128 50002 TSNO VIA AUTODIAL
PAWI 252253Z AUTO 17004KT 7SM OVC007 M08/M10 A3035 RMK SNB26E53 SLP277 P0000 T10831100 TSNO VIA AUTODIAL
PAWI 252153Z AUTO 19004KT 10SM OVC006 M09/M10 A3034 RMK SLP277 T10891100 TSNO VIA AUTODIAL
PAWI 252053Z AUTO 19005KT 10SM OVC005 M09/M11 A3034 RMK SLP274 T10941106 53006 TSNO VIA AUTODIAL
PAWI 251953Z AUTO 19006KT 10SM OVC005 M11/M13 A3033 RMK SLP272 T11111128 TSNO VIA AUTODIAL
PAWI 251853Z AUTO 16005KT 10SM OVC005 M12/M14 A3032 RMK SLP269 T11221139 TSNO VIA AUTODIAL
PAWI 251851Z AUTO 16005KT 10SM OVC005 M12/M14 A3032 RMK TSNO VIA AUTODIAL
PAWI 251818Z AUTO 17004KT 10SM OVC004 M13/M14 A3032 RMK T11281144 TSNO VIA AUTODIAL
PAWI 251804Z AUTO 14003KT 2 1/2SM BR OVC004 M13/M14 A3032 RMK T11281144 TSNO VIA AUTODIAL
PAWI 251753Z AUTO 15003KT 10SM OVC005 M13/M14 A3032 RMK SLP268 I6000 T11281144 11128 21161 53003 TSNO VIA AUTODIAL
PAWI 251734Z AUTO 10004KT 10SM OVC005 M13/M15 A3032 RMK T11331150 TSNO VIA AUTODIAL
PAWI 251706Z AUTO 07006KT 3SM BR BKN001 BKN005 M14/M16 A3031 RMK T11441161 TSNO VIA AUTODIAL
PAWI 251655Z AUTO 06007KT 1 3/4SM BR OVC001 M14/M16 A3031 RMK T11441161 TSNO VIA AUTODIAL
PAWI 251653Z AUTO 06007KT 3SM BR BKN001 OVC080 M14/M17 A3031 RMK SLP266 T11441167 TSNO VIA AUTODIAL
PAWI 251635Z AUTO 06007KT 9SM SCT001 OVC085 M14/M16 A3031 RMK T11441161 TSNO VIA AUTODIAL
PAWI 251553Z AUTO 04006KT 10SM OVC095 M13/M16 A3031 RMK SLP265 T11331156 TSNO VIA AUTODIAL
PAWI 251453Z AUTO 06005KT 10SM BKN095 OVC110 M15/M17 A3031 RMK SLP265 I3000 T11501172 51007 TSNO VIA AUTODIAL
PAWI 251353Z AUTO 07004KT 10SM CLR M16/M17 A3030 RMK SLP263 T11561172 TSNO VIA AUTODIAL
PAWI 251253Z AUTO 05004KT 10SM CLR M14/M16 A3030 RMK SLP261 I1000 T11391161 TSNO VIA AUTODIAL
PAWI 251153Z AUTO 01005KT 10SM CLR M14/M16 A3029 RMK SLP258 T11391156 11111 21144 51005 TSNO VIA AUTODIAL
PAWI 251053Z AUTO 03006KT 10SM CLR M14/M16 A3029 RMK SLP258 T11391156 TSNO VIA AUTODIAL
PAWI 251028Z AUTO 04007KT 10SM SCT009 M13/M15 A3029 RMK T11331150 TSNO VIA AUTODIAL
PAWI 250953Z AUTO 06009KT 10SM OVC009 M12/M14 A3028 RMK SLP255 T11221144 TSNO VIA AUTODIAL
PAWI 250951Z AUTO 06008KT 10SM OVC009 M12/M14 A3028 RMK TSNO VIA AUTODIAL
PAWI 250853Z AUTO 08006KT 10SM OVC011 M12/M14 A3027 RMK SLP253 T11171139 411061172 52007 TSNO VIA AUTODIAL
PAWI 250842Z AUTO 08007KT 10SM OVC010 M12/M14 A3027 RMK T11171139 TSNO VIA AUTODIAL
PAWI 250753Z AUTO 08007KT 10SM OVC009 M11/M13 A3027 RMK SLP251 T11111133 TSNO VIA AUTODIAL
PAWI 250706Z AUTO 08006KT 10SM OVC009 M11/M14 A3026 RMK T11111139 TSNO VIA AUTODIAL
PAWI 250653Z AUTO 09007KT 10SM OVC010 M11/M14 A3026 RMK SLP248 T11111139 TSNO VIA AUTODIAL
PAWI 250553Z AUTO 08006KT 10SM OVC012 M11/M14 A3025 RMK SLP246 60000 T11111139 11106 21117 53003 TSNO VIA AUTODIAL
PAWI 250453Z AUTO 10014KT 9SM OVC012 M11/M13 A3025 RMK SNE52 SLP244 P0000 T11061133 TSNO VIA AUTODIAL
PAWI 250353Z AUTO 10013KT 5SM -SN OVC013 M11/M13 A3024 RMK SLP243 P0000 T11061133 TSNO VIA AUTODIAL
PAWI 250304Z AUTO 09016KT 5SM -SN OVC014 M11/M13 A3024 RMK P0000 T11061133 TSNO VIA AUTODIAL
PAWI 250253Z AUTO 09017KT 8SM -SN OVC015 M11/M13 A3024 RMK UPB09E12SNB08E09B12 SLP243 P0000 60000 T11061133 57001 TSNO VIA AUTODIAL
PAWI 250212Z AUTO 10016KT 7SM -SN OVC015 M11/M13 A3024 RMK UPB09E12SNB08E09B12 P0000 T11061133 TSNO VIA AUTODIAL
PAWI 250153Z AUTO 10018KT 4SM HZ OVC014 M11/M14 A3024 RMK SNB00E51 SLP243 P0000 T11061139 TSNO VIA AUTODIAL
PAWI 250145Z AUTO 09020KT 4SM -SN OVC014 M11/M14 A3024 RMK SNB00 P0000 T11061139 TSNO VIA AUTODIAL
PAWI 250113Z AUTO 09017KT 2 1/2SM -SN OVC014 M11/M14 A3025 RMK SNB00 P0000 T11111144 TSNO VIA AUTODIAL
PAWI 250053Z AUTO 09017KT 7SM OVC015 M11/M14 A3025 RMK UPE05B30E34SNB24E30B35E45 SLP244 P0000 T11111144 TSNO VIA AUTODIAL
PAWI 250015Z AUTO 09019KT 3SM HZ OVC016 M11/M14 A3024 RMK UPE05 P0000 T11111144 TSNO VIA AUTODIAL
PAWI 242353Z AUTO 08019KT 2SM UP OVC016 M11/M15 A3025 RMK UPB2256E06B22E28B46SNB2255E2256B28E42 SLP244 P0000 60000 T11111150 11111 21150 58005 TSNO VIA AUTODIAL
PAWI 242330Z AUTO 09017KT 2 1/2SM -SN FEW007 SCT010 BKN017 M11/M14 A3025 RMK UPB2256E06B22E28SNB2255E2256B28 P0000 T11111144 TSNO VIA AUTODIAL
PAWI 242325Z AUTO 09018KT 3SM UP SCT007 BKN012 BKN017 M12/M14 A3025 RMK UPB2256E06B22SNB2255E2256 P0000 T11171144 TSNO VIA AUTODIAL
PAWI 242253Z AUTO 09018KT 4SM HZ BKN008 BKN016 M11/M14 A3026 RMK UPB21E22SNE00B34E40 SLP247 P0000 T11111144 TSNO VIA AUTODIAL
PAWI 242248Z AUTO 09016KT 3SM HZ BKN008 BKN016 M12/M15 A3026 RMK UPB21E22SNE00B34E40 P0000 TSNO VIA AUTODIAL
PAWI 242229Z AUTO 08019KT 1 1/2SM BLSN BKN008 BKN014 BKN019 M12/M15 A3026 RMK UPB21E22SNE00 P0000 T11171150 TSNO VIA AUTODIAL
PAWI 242220Z AUTO 08018KT 2SM BLSN BKN008 BKN019 M12/M15 A3026 RMK SNE00 P0000 T11171150 TSNO VIA AUTODIAL
PAWI 242208Z AUTO 08019KT 1 1/4SM BLSN SCT007 BKN018 M12/M15 A3026 RMK SNE00 P0000 T11171150 TSNO VIA AUTODIAL
PAWI 242202Z AUTO 08020KT 1 1/4SM BLSN BKN008 OVC018 M12/M15 A3026 RMK SNE00 P0000 T11171150 TSNO VIA AUTODIAL
PAWI 242153Z AUTO 09019KT 3/4SM -SN BKN008 BKN012 OVC017 M12/M15 A3026 RMK UPB14E20SNE14B20 SLP248 P0000 T11221150 TSNO VIA AUTODIAL
PAWI 242053Z AUTO 07020KT 1/2SM SN OVC008 M12/M15 A3026 RMK PK WND 07026/2027 UPB07E26SNB52 SLP249 P0000 60000 T11221150 58003 TSNO VIA AUTODIAL
PAWI 241953Z AUTO 07020KT 1/4SM FZFG BLSN OVC007 M13/M16 A3026 RMK UPB36E49SNB39E47 SLP250 P0000 T11331156 TSNO VIA AUTODIAL
PAWI 241853Z AUTO 07019KT 1/2SM FZFG BLSN OVC005 M14/M17 A3027 RMK AO2 PK WND 08026/1755 UPE09 SLP252 P0000 T11441167 TSNO
PAWI 241753Z AUTO 08022G28KT 1/4SM UP OVC007 M15/M18 A3027 RMK AO2 PK WND 09030/1739 UPB45 SLP252 P0000 60000 T11501178 11150 21172 58006 TSNO
PAWI 241721Z AUTO 07020KT 1/2SM BLSN OVC007 M15/M18 A3027 RMK AO2 T11501178 TSNO
PAWI 241653Z AUTO 07016KT 1 1/2SM HZ OVC008 M16/M18 A3029 RMK AO2 SLP257 T11561183 TSNO
PAWI 241651Z AUTO 07016KT 1 1/2SM BR OVC008 M16/M18 A3028 RMK AO2 TSNO
PAWI 241620Z AUTO 07017KT 2 1/2SM BR OVC009 M17/M19 A3029 RMK AO2 T11671189 TSNO
PAWI 241553Z AUTO 07016KT 3SM BR OVC010 M17/M19 A3029 RMK AO2 SLP258 T11671189 TSNO
PAWI 241453Z AUTO 06018KT 2SM HZ OVC010 M17/M19 A3029 RMK AO2 SLP257 T11671194 56004 TSNO
PAWI 241422Z AUTO 06018KT 2 1/2SM HZ BKN010 M17/M19 A3028 RMK AO2 T11671194 TSNO
PAWI 241353Z AUTO 06016KT 4SM HZ CLR M17/M20 A3029 RMK AO2 SLP258 T11721200 TSNO